Time;durP1;ratioP1;P1;durP2;ratioP2;P2;SDS_P1;SDS_P2;PMS_P1;PMS_P2;Temp;Humidity;BMP_temperature;BMP_pressure;BME280_temperature;BME280_humidity;BME280_pressure;Samples;Min_cycle;Max_cycle;Signal;HPM_P1;HPM_P2
2023/07/23 00:03:11;;;;;;;3.25;2.10;;;;;;;15.19;100.00;97618.16;18431679;32;20067;-57
2023/07/23 00:13:13;;;;;;;5.12;2.37;;;;;;;15.09;100.00;97610.19;18417467;32;20460;-57
2023/07/23 00:23:16;;;;;;;3.33;2.35;;;;;;;15.06;100.00;97608.88;18431278;32;20080;-57
2023/07/23 00:33:23;;;;;;;3.08;2.00;;;;;;;15.01;100.00;97602.72;18430612;32;20057;-57
2023/07/23 00:43:25;;;;;;;3.03;1.90;;;;;;;14.94;100.00;97594.94;18430395;32;20095;-57
2023/07/23 00:53:28;;;;;;;3.70;2.28;;;;;;;14.82;100.00;97584.53;18434601;32;20116;-57
2023/07/23 01:03:32;;;;;;;2.87;2.05;;;;;;;14.65;100.00;97579.66;18442448;32;20045;-57
2023/07/23 01:13:37;;;;;;;3.03;2.05;;;;;;;14.51;100.00;97582.31;18441793;32;20053;-57
2023/07/23 01:23:40;;;;;;;3.87;2.50;;;;;;;14.43;100.00;97583.00;18440995;32;20365;-57
2023/07/23 01:33:43;;;;;;;2.90;1.85;;;;;;;14.37;100.00;97595.06;18436038;32;20058;-58
2023/07/23 01:43:45;;;;;;;2.42;1.90;;;;;;;14.26;100.00;97585.47;18437665;32;20500;-58
2023/07/23 01:53:48;;;;;;;3.83;1.92;;;;;;;14.10;100.00;97588.41;18439456;32;20376;-58
2023/07/23 02:03:50;;;;;;;5.90;2.43;;;;;;;13.99;100.00;97578.78;18424020;32;20480;-58
2023/07/23 02:13:52;;;;;;;3.20;2.03;;;;;;;13.89;100.00;97583.28;18438178;32;20109;-57
2023/07/23 02:23:55;;;;;;;4.32;2.45;;;;;;;13.83;100.00;97584.44;18437790;32;20116;-58
2023/07/23 02:33:57;;;;;;;4.37;2.22;;;;;;;13.73;100.00;97581.84;18437008;32;20065;-57
2023/07/23 02:44:00;;;;;;;4.07;2.37;;;;;;;13.67;100.00;97594.69;18435914;32;20118;-58
2023/07/23 02:54:03;;;;;;;3.40;2.37;;;;;;;13.69;100.00;97595.22;18435591;32;20057;-57
2023/07/23 03:04:05;;;;;;;3.63;2.00;;;;;;;13.67;100.00;97604.78;18435089;32;20041;-58
2023/07/23 03:14:08;;;;;;;3.28;2.42;;;;;;;13.64;100.00;97611.59;18419870;32;20079;-57
2023/07/23 03:24:10;;;;;;;3.00;1.80;;;;;;;13.61;100.00;97614.91;18433956;32;20391;-57
2023/07/23 03:34:13;;;;;;;3.25;2.47;;;;;;;13.53;100.00;97605.47;18433265;32;20070;-57
2023/07/23 03:44:15;;;;;;;3.80;2.20;;;;;;;13.43;100.00;97611.06;18418485;32;20069;-57
2023/07/23 03:54:18;;;;;;;3.10;2.17;;;;;;;13.34;100.00;97618.19;18432319;32;20057;-57
2023/07/23 04:04:20;;;;;;;4.60;2.60;;;;;;;13.23;100.00;97618.28;18431876;32;20061;-57
2023/07/23 04:14:24;;;;;;;3.60;2.40;;;;;;;13.16;100.00;97617.81;18424835;32;20095;-58
2023/07/23 04:24:27;;;;;;;3.50;2.00;;;;;;;13.10;100.00;97624.41;18431172;32;20053;-57
2023/07/23 04:34:30;;;;;;;3.13;2.13;;;;;;;13.15;100.00;97635.19;18443359;32;20087;-58
2023/07/23 04:44:33;;;;;;;4.90;2.20;;;;;;;13.24;100.00;97640.84;18443160;32;20057;-58
2023/07/23 04:54:36;;;;;;;3.50;2.10;;;;;;;13.44;100.00;97644.44;18442982;32;20062;-58
2023/07/23 05:04:38;;;;;;;2.53;2.03;;;;;;;13.81;100.00;97645.63;18442328;32;20109;-58
2023/07/23 05:14:41;;;;;;;3.53;2.15;;;;;;;14.35;100.00;97646.25;18427972;32;20062;-58
2023/07/23 05:24:44;;;;;;;2.62;1.92;;;;;;;14.73;100.00;97646.19;18441299;32;20101;-57
2023/07/23 05:34:47;;;;;;;3.35;1.87;;;;;;;15.10;100.00;97643.66;18440740;32;20457;-58
2023/07/23 05:44:50;;;;;;;2.67;1.62;;;;;;;15.39;100.00;97651.59;18439812;32;20165;-58
2023/07/23 05:54:52;;;;;;;2.73;1.70;;;;;;;15.76;100.00;97652.50;18424777;32;20076;-58
2023/07/23 06:04:55;;;;;;;2.72;1.80;;;;;;;16.19;100.00;97657.59;18424896;32;20053;-58
2023/07/23 06:14:58;;;;;;;2.60;1.50;;;;;;;16.57;100.00;97665.44;18438117;32;20081;-58
2023/07/23 06:25:01;;;;;;;2.58;1.48;;;;;;;16.96;100.00;97667.84;18423544;32;20110;-58
2023/07/23 06:35:10;;;;;;;4.18;1.75;;;;;;;17.26;100.00;97666.22;18423522;32;20054;-58
2023/07/23 06:45:13;;;;;;;2.65;1.77;;;;;;;17.40;100.00;97672.41;18436181;32;20068;-58
2023/07/23 06:55:15;;;;;;;2.97;1.85;;;;;;;17.72;100.00;97678.66;18428562;32;20062;-58
2023/07/23 07:05:18;;;;;;;2.53;1.90;;;;;;;18.56;100.00;97669.63;18435093;32;20077;-58
2023/07/23 07:15:21;;;;;;;3.87;1.80;;;;;;;19.34;100.00;97673.41;18407651;32;20424;-58
2023/07/23 07:25:25;;;;;;;2.37;1.67;;;;;;;20.12;100.00;97680.47;18433823;32;20377;-57
2023/07/23 07:35:28;;;;;;;3.55;1.92;;;;;;;20.68;100.00;97674.78;18433388;32;20062;-57
2023/07/23 07:45:31;;;;;;;2.17;1.43;;;;;;;21.30;100.00;97673.00;18418400;32;20064;-57
2023/07/23 07:55:43;;;;;;;1.95;1.50;;;;;;;22.06;100.00;97674.69;18431854;32;20140;-57
2023/07/23 08:05:46;;;;;;;1.70;1.20;;;;;;;22.34;100.00;97675.56;18432058;32;20058;-57
2023/07/23 08:15:50;;;;;;;1.52;1.20;;;;;;;22.66;100.00;97670.19;18431636;32;20114;-58
2023/07/23 08:25:58;;;;;;;3.15;1.30;;;;;;;23.06;100.00;97671.28;18431246;32;20408;-58
2023/07/23 08:36:02;;;;;;;2.20;1.05;;;;;;;23.83;93.50;97664.59;18430721;32;20124;-58
2023/07/23 08:46:27;;;;;;;1.95;1.42;;;;;;;24.36;77.96;97664.22;18430029;32;20338;-58
2023/07/23 08:56:30;;;;;;;1.60;1.20;;;;;;;24.24;77.65;97664.34;18430246;32;20072;-58
2023/07/23 09:06:33;;;;;;;2.25;1.20;;;;;;;24.17;80.18;97669.72;18429782;32;20065;-58
2023/07/23 09:16:38;;;;;;;1.85;1.50;;;;;;;24.07;82.24;97656.50;18422086;32;20053;-58
2023/07/23 09:26:43;;;;;;;2.30;1.30;;;;;;;24.16;76.91;97654.31;18441455;32;20062;-58
2023/07/23 09:36:53;;;;;;;3.08;1.90;;;;;;;24.67;72.10;97645.97;18427240;32;20056;-58
2023/07/23 09:46:58;;;;;;;2.00;1.40;;;;;;;25.16;65.95;97625.16;18426143;32;20066;-58
2023/07/23 09:57:02;;;;;;;2.05;1.35;;;;;;;25.57;61.82;97619.12;18439226;32;20057;-58
2023/07/23 10:07:07;;;;;;;2.03;1.80;;;;;;;25.82;60.72;97619.53;18411817;32;20061;-58
2023/07/23 10:17:11;;;;;;;2.20;1.75;;;;;;;26.42;57.58;97606.94;18438226;32;20156;-58
2023/07/23 10:27:14;;;;;;;2.87;1.87;;;;;;;26.90;51.50;97597.97;18436992;32;20366;-58
2023/07/23 10:37:19;;;;;;;3.05;2.20;;;;;;;27.29;50.15;97589.22;18430210;32;20057;-58
2023/07/23 10:47:32;;;;;;;3.70;2.10;;;;;;;27.78;53.00;97572.53;18370804;32;20449;-58
2023/07/23 10:57:41;;;;;;;2.75;2.10;;;;;;;28.03;51.00;97551.28;18358273;32;20121;-58
2023/07/23 11:08:13;;;;;;;4.53;2.58;;;;;;;28.35;50.15;97545.06;18371074;32;20065;-58
2023/07/23 11:18:21;;;;;;;4.12;2.67;;;;;;;28.85;52.24;97532.53;18370938;32;20098;-58
2023/07/23 11:28:24;;;;;;;5.15;3.40;;;;;;;29.60;44.08;97508.63;18370030;32;20065;-58
2023/07/23 11:38:30;;;;;;;5.57;3.47;;;;;;;29.94;44.63;97503.41;18368991;32;20472;-58
2023/07/23 11:48:34;;;;;;;3.72;2.97;;;;;;;30.28;43.31;97497.28;18428213;32;20109;-58
2023/07/23 11:58:37;;;;;;;3.75;2.70;;;;;;;30.25;47.60;97504.47;18405771;32;20046;-58
2023/07/23 12:08:45;;;;;;;3.75;2.67;;;;;;;30.18;40.98;97489.78;18418113;32;20061;-58
2023/07/23 12:18:48;;;;;;;3.37;2.58;;;;;;;30.41;42.50;97494.84;18417334;32;20056;-58
2023/07/23 12:28:51;;;;;;;7.80;2.62;;;;;;;30.79;41.44;97477.47;18416679;32;20094;-58
2023/07/23 12:38:54;;;;;;;3.97;2.70;;;;;;;30.93;45.65;97468.97;18416675;32;20057;-57
2023/07/23 12:48:58;;;;;;;4.00;2.80;;;;;;;30.61;43.33;97481.19;18433965;32;20388;-58
2023/07/23 12:59:04;;;;;;;2.55;2.22;;;;;;;30.00;41.63;97470.31;18443205;32;20082;-58
2023/07/23 13:09:08;;;;;;;3.83;2.47;;;;;;;30.11;44.88;97464.69;18442492;32;20057;-58
2023/07/23 13:19:12;;;;;;;4.30;2.95;;;;;;;29.29;46.36;97469.31;18421258;32;20477;-58
2023/07/23 13:29:15;;;;;;;5.80;3.05;;;;;;;28.21;46.52;97467.97;18440933;32;20094;-58
2023/07/23 13:39:18;;;;;;;5.50;3.00;;;;;;;27.68;48.15;97468.53;18413315;32;20074;-58
2023/07/23 13:49:21;;;;;;;4.43;2.75;;;;;;;27.83;52.48;97469.38;18440153;32;20390;-58
2023/07/23 13:59:31;;;;;;;3.70;2.58;;;;;;;27.90;50.92;97469.41;18425297;32;20125;-58
2023/07/23 14:09:34;;;;;;;2.95;2.28;;;;;;;27.67;49.95;97456.63;18424726;32;20084;-58
2023/07/23 14:19:37;;;;;;;4.18;2.78;;;;;;;28.06;63.19;97444.88;18437797;32;20404;-58
2023/07/23 14:29:41;;;;;;;4.53;2.70;;;;;;;28.30;50.93;97437.03;18437573;32;20062;-58
2023/07/23 14:39:44;;;;;;;4.72;3.12;;;;;;;29.32;56.49;97424.75;18436540;32;20049;-58
2023/07/23 14:49:47;;;;;;;5.62;4.30;;;;;;;30.59;50.85;97425.00;18422546;32;20057;-58
2023/07/23 14:59:51;;;;;;;6.90;4.60;;;;;;;30.23;53.64;97405.66;18421850;32;20430;-59
2023/07/23 15:09:54;;;;;;;5.65;4.28;;;;;;;31.08;44.43;97395.09;18414446;32;20096;-59
2023/07/23 15:19:58;;;;;;;5.75;3.92;;;;;;;30.19;44.07;97388.16;18420445;32;20083;-58
2023/07/23 15:30:01;;;;;;;7.50;4.85;;;;;;;29.84;nan;97387.94;18433364;32;20405;-58
2023/07/23 15:40:10;;;;;;;6.87;4.82;;;;;;;29.76;41.58;97389.19;18419351;32;20109;-58
2023/07/23 15:50:13;;;;;;;7.05;4.78;;;;;;;29.36;44.22;97382.97;18419316;32;20411;-58
2023/07/23 16:00:17;;;;;;;6.68;4.57;;;;;;;29.02;45.99;97381.41;18403894;32;20479;-58
2023/07/23 16:10:20;;;;;;;6.53;4.57;;;;;;;29.06;47.15;97378.63;18427294;32;20049;-58
2023/07/23 16:20:23;;;;;;;7.00;4.40;;;;;;;28.94;45.54;97368.72;18431135;32;20429;-58
2023/07/23 16:30:26;;;;;;;5.53;4.40;;;;;;;28.54;48.83;97359.56;18416451;32;20057;-58
2023/07/23 16:40:34;;;;;;;5.35;3.92;;;;;;;28.40;56.35;97363.94;18430734;32;20034;-58
2023/07/23 16:50:37;;;;;;;5.03;3.97;;;;;;;28.25;59.90;97340.09;18430446;32;20065;-58
2023/07/23 17:00:40;;;;;;;6.90;3.45;;;;;;;27.81;62.42;97327.31;18430108;32;20053;-58
2023/07/23 17:10:43;;;;;;;5.28;3.87;;;;;;;28.14;68.04;97328.19;18429934;32;20073;-58
2023/07/23 17:20:47;;;;;;;5.60;3.80;;;;;;;28.08;72.52;97307.53;18429390;32;20053;-58
2023/07/23 17:31:01;;;;;;;5.30;3.78;;;;;;;27.50;73.29;97291.50;18429415;32;20064;-58
2023/07/23 17:41:05;;;;;;;4.97;3.60;;;;;;;26.88;68.60;97289.63;18425524;32;20037;-58
2023/07/23 17:51:08;;;;;;;6.00;3.85;;;;;;;26.47;80.73;97273.88;18439788;32;20421;-58
2023/07/23 18:01:11;;;;;;;4.32;3.08;;;;;;;26.05;86.60;97261.28;18425872;32;20085;-57
2023/07/23 18:11:31;;;;;;;5.62;3.33;;;;;;;25.66;92.25;97265.28;18438845;32;20045;-58
2023/07/23 18:21:34;;;;;;;5.82;4.05;;;;;;;25.25;98.92;97262.41;18438140;32;20061;-57
2023/07/23 18:31:37;;;;;;;7.85;3.92;;;;;;;24.68;100.00;97240.34;18437595;32;20053;-57
2023/07/23 18:41:40;;;;;;;6.32;3.47;;;;;;;24.18;100.00;97229.38;18430548;32;20409;-57
2023/07/23 18:51:44;;;;;;;5.93;3.90;;;;;;;23.61;100.00;97220.88;18421795;32;20049;-57
2023/07/23 19:01:48;;;;;;;4.37;3.47;;;;;;;23.16;100.00;97207.47;18435576;32;20057;-57
2023/07/23 19:11:52;;;;;;;4.93;3.65;;;;;;;22.73;100.00;97194.78;18435153;32;20049;-58
2023/07/23 19:21:55;;;;;;;7.25;4.37;;;;;;;22.38;100.00;97184.56;18420667;32;20076;-57
2023/07/23 19:31:58;;;;;;;6.75;4.00;;;;;;;22.04;100.00;97170.44;18434097;32;20108;-58
2023/07/23 19:42:01;;;;;;;5.12;3.92;;;;;;;21.81;100.00;97179.31;18432787;32;20061;-58
2023/07/23 19:52:04;;;;;;;5.55;3.90;;;;;;;21.50;100.00;97176.19;18432566;32;20098;-57
2023/07/23 20:02:07;;;;;;;6.15;4.07;;;;;;;21.30;100.00;97177.22;18417972;32;20438;-57
2023/07/23 20:12:10;;;;;;;6.10;4.25;;;;;;;21.07;100.00;97174.25;18418124;32;20116;-57
2023/07/23 20:22:14;;;;;;;5.40;4.43;;;;;;;20.73;100.00;97177.25;18405022;32;20101;-58
2023/07/23 20:32:17;;;;;;;5.93;3.90;;;;;;;20.47;100.00;97177.66;18430986;32;20118;-57
2023/07/23 20:42:21;;;;;;;6.18;4.53;;;;;;;20.19;100.00;97186.63;18430525;32;20049;-57
2023/07/23 20:52:24;;;;;;;;;;;;;;;19.93;100.00;97178.78;18430861;32;20054;-57
2023/07/23 21:02:27;;;;;;;7.43;4.07;;;;;;;19.67;100.00;97182.63;18430518;32;19987;-57
2023/07/23 21:12:30;;;;;;;6.03;4.27;;;;;;;19.55;100.00;97177.12;18436852;32;20342;-58
2023/07/23 21:22:33;;;;;;;7.50;4.17;;;;;;;19.43;100.00;97172.41;18438470;32;20049;-57
2023/07/23 21:32:36;;;;;;;6.73;3.97;;;;;;;19.41;100.00;97171.97;18424020;32;20182;-57
2023/07/23 21:42:39;;;;;;;5.67;3.77;;;;;;;19.34;100.00;97150.59;18440051;32;20037;-57
2023/07/23 21:52:42;;;;;;;6.83;4.60;;;;;;;19.30;100.00;97150.47;18426037;32;20087;-57
2023/07/23 22:02:45;;;;;;;6.30;3.70;;;;;;;19.18;100.00;97147.69;18439194;32;20128;-57
2023/07/23 22:12:48;;;;;;;;;;;;;;;19.12;100.00;97116.19;18438997;32;20072;-57
2023/07/23 22:22:50;;;;;;;6.40;3.58;;;;;;;19.01;100.00;97124.03;18431845;32;19945;-57
2023/07/23 22:32:53;;;;;;;7.03;4.00;;;;;;;19.05;100.00;97115.91;18437649;32;20071;-57
2023/07/23 22:42:56;;;;;;;7.13;4.70;;;;;;;19.08;100.00;97107.06;18436546;32;20072;-57
2023/07/23 22:53:06;;;;;;;8.07;3.90;;;;;;;19.07;100.00;97106.22;18436454;32;20072;-57
2023/07/23 23:03:09;;;;;;;6.70;4.50;;;;;;;19.03;100.00;97099.03;18435780;32;20079;-57
2023/07/23 23:13:12;;;;;;;6.77;4.33;;;;;;;19.05;100.00;97088.53;18408148;32;20068;-57
2023/07/23 23:23:14;;;;;;;6.25;4.72;;;;;;;18.98;100.00;97069.13;18434067;32;20429;-57
2023/07/23 23:33:17;;;;;;;6.95;4.35;;;;;;;18.84;100.00;97086.62;18419625;32;20090;-57
2023/07/23 23:43:20;;;;;;;7.20;4.83;;;;;;;18.72;100.00;97079.19;18432937;32;20045;-58
2023/07/23 23:53:23;;;;;;;6.97;4.40;;;;;;;18.65;100.00;97100.03;18432710;32;20108;-57
